createdAt,value
2022-10-17T00:01:28.579Z,16.65
2022-10-17T00:03:56.711Z,15.20
2022-10-17T00:06:24.588Z,15.27
2022-10-17T00:08:52.502Z,16.30
2022-10-17T00:11:25.380Z,16.58
2022-10-17T00:13:56.546Z,15.18
2022-10-17T00:16:27.211Z,15.95
2022-10-17T00:18:55.974Z,14.63
2022-10-17T00:21:26.358Z,14.90
2022-10-17T00:23:55.483Z,15.40
2022-10-17T00:26:23.813Z,13.27
2022-10-17T00:28:53.392Z,13.55
2022-10-17T00:33:52.436Z,15.02
2022-10-17T00:36:26.242Z,15.35
2022-10-17T00:38:57.394Z,16.10
2022-10-17T00:41:29.217Z,15.35
2022-10-17T00:44:29.436Z,15.45
2022-10-17T00:47:06.535Z,14.55
2022-10-17T00:49:38.835Z,14.93
2022-10-17T00:52:12.731Z,14.55
2022-10-17T00:54:46.803Z,14.43
2022-10-17T00:57:16.378Z,14.65
2022-10-17T00:59:46.401Z,14.38
2022-10-17T01:02:19.719Z,14.65
2022-10-17T01:04:51.156Z,14.15
2022-10-17T01:07:18.992Z,14.88
2022-10-17T01:09:49.141Z,14.55
2022-10-17T01:12:22.743Z,14.82
2022-10-17T01:15:27.263Z,13.82
2022-10-17T01:18:31.344Z,15.13
2022-10-17T01:21:11.252Z,14.15
2022-10-17T01:23:50.611Z,13.77
2022-10-17T01:26:27.489Z,13.73
2022-10-17T01:29:21.015Z,13.93
2022-10-17T01:31:56.851Z,14.18
2022-10-17T01:34:42.172Z,15.05
2022-10-17T01:37:29.690Z,13.32
2022-10-17T01:40:13.453Z,12.77
2022-10-17T01:42:58.819Z,13.73
2022-10-17T01:45:34.958Z,11.98
2022-10-17T01:48:08.771Z,13.20
2022-10-17T01:50:42.181Z,13.23
2022-10-17T01:53:20.136Z,14.18
2022-10-17T01:55:50.984Z,15.25
2022-10-17T01:58:27.307Z,14.18
2022-10-17T02:00:57.527Z,17.45
2022-10-17T02:03:30.527Z,23.92
2022-10-17T02:06:01.600Z,26.00
2022-10-17T02:08:43.733Z,22.05
2022-10-17T02:11:21.983Z,17.90
2022-10-17T02:14:01.659Z,17.15
2022-10-17T02:19:03.787Z,17.60
2022-10-17T02:22:39.634Z,16.55
2022-10-17T02:25:42.984Z,17.63
2022-10-17T02:28:34.379Z,17.02
2022-10-17T02:31:10.327Z,17.48
2022-10-17T02:34:02.289Z,16.63
2022-10-17T02:36:48.562Z,17.48
2022-10-17T02:39:17.842Z,15.73
2022-10-17T02:41:46.748Z,18.05
2022-10-17T02:44:16.428Z,18.23
2022-10-17T02:49:29.531Z,19.00
2022-10-17T02:52:08.470Z,16.75
2022-10-17T02:55:18.703Z,17.08
2022-10-17T02:57:51.764Z,17.90
2022-10-17T03:00:22.422Z,18.90
2022-10-17T03:02:52.759Z,17.65
2022-10-17T03:05:30.173Z,18.30
2022-10-17T03:07:58.079Z,17.92
2022-10-17T03:10:25.978Z,17.73
2022-10-17T03:12:56.377Z,18.88
2022-10-17T03:15:24.254Z,18.85
2022-10-17T03:17:52.170Z,19.50
2022-10-17T03:20:20.294Z,18.48
2022-10-17T03:22:48.160Z,18.83
2022-10-17T03:25:16.060Z,18.25
2022-10-17T03:27:44.085Z,18.63
2022-10-17T03:30:12.124Z,18.35
2022-10-17T03:32:40.125Z,16.80
2022-10-17T03:35:14.047Z,17.25
2022-10-17T03:37:43.186Z,17.25
2022-10-17T03:40:11.463Z,17.52
2022-10-17T03:42:40.909Z,17.52
2022-10-17T03:45:09.457Z,26.00
2022-10-17T03:47:37.425Z,23.98
2022-10-17T03:50:06.260Z,23.73
2022-10-17T03:52:34.177Z,22.43
2022-10-17T03:55:02.044Z,19.88
2022-10-17T03:57:32.127Z,19.27
2022-10-17T04:00:00.591Z,19.95
2022-10-17T04:02:28.700Z,19.27
2022-10-17T04:04:57.581Z,17.55
2022-10-17T04:07:28.308Z,19.85
2022-10-17T04:09:56.208Z,17.98
2022-10-17T04:12:25.003Z,19.50
2022-10-17T04:14:52.917Z,20.20
2022-10-17T04:17:20.792Z,18.75
2022-10-17T04:19:51.940Z,19.15
2022-10-17T04:22:19.861Z,18.05
2022-10-17T04:24:47.721Z,17.38
2022-10-17T04:27:15.833Z,18.75
2022-10-17T04:29:44.886Z,17.52
2022-10-17T04:32:12.906Z,16.60
2022-10-17T04:34:41.887Z,17.35
2022-10-17T04:37:09.886Z,15.15
2022-10-17T04:39:37.838Z,17.65
2022-10-17T04:42:05.932Z,16.92
2022-10-17T04:44:34.604Z,15.27
2022-10-17T04:47:02.619Z,15.25
2022-10-17T04:49:30.712Z,12.30
2022-10-17T04:51:58.588Z,12.10
2022-10-17T04:54:26.583Z,11.82
2022-10-17T04:56:55.412Z,13.02
2022-10-17T04:59:23.349Z,13.88
2022-10-17T05:01:51.924Z,13.75
2022-10-17T05:04:22.450Z,12.75
2022-10-17T05:06:52.718Z,12.20
2022-10-17T05:09:20.815Z,11.45
2022-10-17T05:11:51.647Z,12.77
2022-10-17T05:14:19.722Z,10.98
2022-10-17T05:16:47.695Z,11.18
2022-10-17T05:19:15.932Z,11.15
2022-10-17T05:21:43.778Z,11.10
2022-10-17T05:24:14.333Z,10.70
2022-10-17T05:26:42.465Z,12.57
2022-10-17T05:29:10.992Z,13.52
2022-10-17T05:31:38.935Z,12.63
2022-10-17T05:34:13.060Z,11.75
2022-10-17T05:36:42.122Z,11.35
2022-10-17T05:39:10.149Z,12.55
2022-10-17T05:41:39.831Z,12.43
2022-10-17T05:44:07.792Z,12.30
2022-10-17T05:46:35.696Z,11.50
2022-10-17T05:49:14.668Z,12.00
2022-10-17T05:51:52.566Z,12.10
2022-10-17T05:54:21.669Z,12.10
2022-10-17T05:56:56.708Z,12.50
2022-10-17T05:59:27.491Z,12.73
2022-10-17T06:01:55.458Z,12.88
2022-10-17T06:04:23.586Z,11.23
2022-10-17T06:06:52.731Z,11.63
2022-10-17T06:09:20.810Z,11.30
2022-10-17T06:11:48.910Z,12.30
2022-10-17T06:14:18.775Z,11.93
2022-10-17T06:19:14.348Z,10.77
2022-10-17T06:21:44.446Z,12.40
2022-10-17T06:24:12.332Z,10.93
2022-10-17T06:26:40.327Z,12.55
2022-10-17T06:29:08.514Z,11.88
2022-10-17T06:31:36.446Z,11.73
2022-10-17T06:34:04.351Z,11.65
2022-10-17T06:36:32.394Z,12.13
2022-10-17T06:39:00.259Z,11.40
2022-10-17T06:41:28.220Z,12.68
2022-10-17T06:43:57.090Z,11.57
2022-10-17T06:46:27.474Z,11.55
2022-10-17T06:48:55.294Z,13.43
2022-10-17T06:51:24.087Z,12.43
2022-10-17T06:53:52.033Z,13.15
2022-10-17T06:56:20.024Z,13.18
2022-10-17T06:58:50.306Z,13.20
2022-10-17T07:01:18.321Z,12.32
2022-10-17T07:03:50.685Z,13.15
2022-10-17T07:06:19.524Z,14.23
2022-10-17T07:08:47.587Z,13.45
2022-10-17T07:11:20.947Z,12.98
2022-10-17T07:13:49.961Z,14.05
2022-10-17T07:16:18.310Z,12.70
2022-10-17T07:18:50.782Z,14.98
2022-10-17T07:21:19.992Z,13.02
2022-10-17T07:23:47.987Z,13.02
2022-10-17T07:26:17.813Z,12.85
2022-10-17T07:31:20.931Z,13.00
2022-10-17T07:33:49.938Z,14.55
2022-10-17T07:36:20.458Z,12.63
2022-10-17T07:38:48.427Z,12.88
2022-10-17T07:41:19.294Z,13.98
2022-10-17T07:43:51.386Z,16.02
2022-10-17T07:46:19.313Z,14.13
2022-10-17T07:48:47.246Z,13.52
2022-10-17T07:51:16.171Z,15.23
2022-10-17T07:53:48.839Z,14.77
2022-10-17T07:56:17.243Z,14.02
2022-10-17T07:58:45.329Z,13.85
2022-10-17T08:01:16.056Z,13.85
2022-10-17T08:03:49.384Z,14.32
2022-10-17T08:06:17.677Z,13.35
2022-10-17T08:08:48.941Z,14.23
2022-10-17T08:11:17.148Z,13.75
2022-10-17T08:13:47.511Z,13.05
2022-10-17T08:16:15.555Z,13.40
2022-10-17T08:18:44.734Z,12.23
2022-10-17T08:21:14.150Z,13.27
2022-10-17T08:23:42.341Z,12.02
2022-10-17T08:26:14.054Z,12.35
2022-10-17T08:28:42.477Z,12.90
2022-10-17T08:31:16.003Z,13.50
2022-10-17T08:33:43.982Z,13.80
2022-10-17T08:36:17.431Z,12.98
2022-10-17T08:38:50.313Z,12.57
2022-10-17T08:41:38.494Z,12.23
2022-10-17T08:44:27.604Z,12.88
2022-10-17T08:47:00.046Z,12.57
2022-10-17T08:49:39.427Z,11.85
2022-10-17T08:52:18.040Z,13.07
2022-10-17T08:54:48.642Z,13.20
2022-10-17T08:57:18.730Z,14.90
2022-10-17T08:59:55.455Z,14.65
2022-10-17T09:02:50.294Z,13.57
2022-10-17T09:05:42.870Z,13.32
2022-10-17T09:08:19.463Z,13.77
2022-10-17T09:11:15.616Z,13.98
2022-10-17T09:13:59.922Z,15.40
2022-10-17T09:16:52.557Z,14.32
2022-10-17T09:19:35.985Z,14.52
2022-10-17T09:22:21.148Z,14.18
2022-10-17T09:25:07.499Z,15.13
2022-10-17T09:27:42.023Z,15.10
2022-10-17T09:30:44.238Z,14.90
2022-10-17T09:33:34.672Z,14.88
2022-10-17T09:36:15.966Z,15.13
2022-10-17T09:38:50.559Z,15.65
2022-10-17T09:41:45.335Z,16.40
2022-10-17T09:44:25.888Z,16.75
2022-10-17T09:47:02.924Z,17.75
2022-10-17T09:49:47.790Z,17.45
2022-10-17T09:52:29.487Z,18.75
2022-10-17T09:55:03.305Z,19.40
2022-10-17T09:57:58.223Z,18.42
2022-10-17T10:00:42.311Z,17.95
2022-10-17T10:03:14.307Z,19.35
2022-10-17T10:05:43.990Z,18.30
2022-10-17T10:08:20.664Z,18.10
2022-10-17T10:10:59.205Z,17.83
2022-10-17T10:13:28.530Z,18.10
2022-10-17T10:16:16.295Z,19.80
2022-10-17T10:18:50.083Z,20.30
2022-10-17T10:21:20.894Z,19.48
2022-10-17T10:26:49.459Z,19.27
2022-10-17T10:29:34.086Z,23.30
2022-10-17T10:35:36.811Z,21.02
2022-10-17T10:38:11.789Z,19.63
2022-10-17T10:40:50.440Z,21.60
2022-10-17T10:43:23.981Z,21.45
2022-10-17T10:45:53.892Z,37.30
2022-10-17T10:51:05.460Z,24.25
2022-10-17T10:53:53.026Z,24.65
2022-10-17T10:56:29.487Z,25.38
2022-10-17T10:59:10.834Z,25.45
2022-10-17T11:01:58.859Z,25.23
2022-10-17T11:04:35.540Z,25.52
2022-10-17T11:07:11.912Z,26.13
2022-10-17T11:10:01.227Z,26.10
2022-10-17T11:12:37.343Z,25.15
2022-10-17T11:15:36.129Z,26.23
2022-10-17T11:18:09.979Z,26.60
2022-10-17T11:20:46.400Z,24.08
2022-10-17T11:23:33.696Z,26.95
2022-10-17T11:26:06.624Z,25.50
2022-10-17T11:28:34.783Z,25.52
2022-10-17T11:31:08.014Z,25.67
2022-10-17T11:34:12.496Z,28.85
2022-10-17T11:36:44.774Z,27.83
2022-10-17T11:39:28.916Z,27.00
2022-10-17T11:42:10.536Z,25.15
2022-10-17T11:44:42.139Z,27.52
2022-10-17T11:47:18.663Z,27.77
2022-10-17T11:49:53.720Z,27.48
2022-10-17T11:52:55.948Z,28.67
2022-10-17T11:55:27.436Z,27.85
2022-10-17T11:57:55.427Z,26.33
2022-10-17T12:00:29.066Z,24.42
2022-10-17T12:03:47.604Z,25.63
2022-10-17T12:06:29.579Z,25.33
2022-10-17T12:09:20.428Z,24.73
2022-10-17T12:11:58.677Z,24.73
2022-10-17T12:14:42.119Z,25.95
2022-10-17T12:17:39.798Z,25.67
2022-10-17T12:20:25.871Z,25.13
2022-10-17T12:23:01.408Z,26.80
2022-10-17T12:25:36.480Z,26.88
2022-10-17T12:28:07.194Z,28.80
2022-10-17T12:30:35.872Z,27.58
2022-10-17T12:33:08.521Z,30.33
2022-10-17T12:35:38.889Z,27.70
2022-10-17T12:38:22.756Z,31.00
2022-10-17T12:40:53.464Z,32.40
2022-10-17T12:43:30.654Z,31.88
2022-10-17T12:46:00.193Z,24.73
2022-10-17T12:48:38.044Z,23.35
2022-10-17T12:54:18.545Z,22.80
2022-10-17T12:56:50.936Z,23.25
2022-10-17T12:59:30.932Z,23.75
2022-10-17T13:02:02.898Z,22.13
2022-10-17T13:04:32.900Z,22.70
2022-10-17T13:07:04.372Z,21.27
2022-10-17T13:09:39.654Z,20.70
2022-10-17T13:12:15.898Z,20.77
2022-10-17T13:14:44.408Z,21.05
2022-10-17T13:17:31.734Z,20.33
2022-10-17T13:19:59.802Z,20.20
2022-10-17T13:22:31.966Z,21.05
2022-10-17T13:25:14.192Z,21.70
2022-10-17T13:27:42.363Z,20.85
2022-10-17T13:30:40.525Z,21.77
2022-10-17T13:33:30.221Z,22.50
2022-10-17T13:36:01.522Z,21.98
2022-10-17T13:38:34.811Z,22.35
2022-10-17T13:41:34.088Z,23.00
2022-10-17T13:44:00.044Z,22.02
2022-10-17T13:46:38.286Z,22.05
2022-10-17T13:49:28.864Z,22.13
2022-10-17T13:51:59.544Z,21.60
2022-10-17T13:54:37.238Z,23.05
2022-10-17T13:57:08.700Z,23.67
2022-10-17T13:59:41.754Z,23.15
2022-10-17T14:02:23.496Z,23.98
2022-10-17T14:05:17.274Z,24.05
2022-10-17T14:08:11.464Z,23.17
2022-10-17T14:10:43.242Z,22.08
2022-10-17T14:13:29.592Z,23.40
2022-10-17T14:16:05.124Z,23.65
2022-10-17T14:18:38.139Z,23.80
2022-10-17T14:24:25.854Z,24.17
2022-10-17T14:27:00.118Z,23.38
2022-10-17T14:29:33.809Z,23.42
2022-10-17T14:32:11.946Z,24.55
2022-10-17T14:34:42.184Z,25.70
2022-10-17T14:37:13.522Z,24.33
2022-10-17T14:39:41.519Z,23.95
2022-10-17T14:42:22.790Z,24.65
2022-10-17T14:44:54.054Z,24.63
2022-10-17T14:47:44.003Z,25.60
2022-10-17T14:50:12.388Z,25.40
2022-10-17T14:52:42.463Z,25.08
2022-10-17T14:55:24.473Z,24.20
2022-10-17T14:57:53.434Z,24.00
2022-10-17T15:00:23.021Z,25.80
2022-10-17T15:02:54.722Z,24.02
2022-10-17T15:05:24.161Z,21.80
2022-10-17T15:07:52.536Z,24.38
2022-10-17T15:10:29.638Z,22.70
2022-10-17T15:13:00.005Z,19.60
2022-10-17T15:15:40.238Z,18.25
2022-10-17T15:18:11.622Z,18.00
2022-10-17T15:20:40.042Z,16.48
2022-10-17T15:23:08.126Z,17.38
2022-10-17T15:25:36.184Z,15.02
2022-10-17T15:28:04.179Z,15.23
2022-10-17T15:30:37.829Z,14.30
2022-10-17T15:33:05.926Z,12.38
2022-10-17T15:35:34.107Z,6.88
2022-10-17T15:38:02.272Z,7.65
2022-10-17T15:40:31.372Z,6.60
2022-10-17T15:42:59.380Z,6.22
2022-10-17T15:45:27.586Z,3.63
2022-10-17T15:48:06.354Z,4.25
2022-10-17T15:50:34.458Z,3.80
2022-10-17T15:53:03.789Z,4.20
2022-10-17T15:55:32.520Z,3.40
2022-10-17T15:58:00.502Z,3.33
2022-10-17T16:00:28.780Z,3.22
2022-10-17T16:02:56.950Z,3.45
2022-10-17T16:05:26.775Z,3.33
2022-10-17T16:07:56.096Z,3.25
2022-10-17T16:10:23.973Z,3.50
2022-10-17T16:12:52.285Z,2.92
2022-10-17T16:15:27.506Z,3.22
2022-10-17T16:18:00.525Z,3.20
2022-10-17T16:20:32.643Z,3.53
2022-10-17T16:23:03.809Z,3.70
2022-10-17T16:25:33.224Z,3.63
2022-10-17T16:28:01.598Z,3.67
2022-10-17T16:30:32.775Z,3.65
2022-10-17T16:33:00.935Z,3.65
2022-10-17T16:35:34.752Z,4.03
2022-10-17T16:38:10.515Z,3.78
2022-10-17T16:40:40.613Z,3.75
2022-10-17T16:43:11.976Z,4.03
2022-10-17T16:45:41.244Z,3.78
2022-10-17T16:48:10.435Z,3.97
2022-10-17T16:50:40.498Z,3.67
2022-10-17T16:53:08.588Z,3.88
2022-10-17T16:55:36.484Z,4.30
2022-10-17T16:58:04.462Z,4.65
2022-10-17T17:00:33.438Z,3.65
2022-10-17T17:03:01.509Z,4.03
2022-10-17T17:05:29.414Z,3.88
2022-10-17T17:08:09.121Z,3.38
2022-10-17T17:10:47.780Z,3.58
2022-10-17T17:13:15.884Z,3.83
2022-10-17T17:18:16.856Z,2.88
2022-10-17T17:20:44.887Z,3.50
2022-10-17T17:23:15.921Z,2.95
2022-10-17T17:25:45.861Z,3.30
2022-10-17T17:28:13.814Z,3.22
2022-10-17T17:30:41.912Z,3.00
2022-10-17T17:33:09.844Z,3.17
2022-10-17T17:35:40.065Z,3.25
2022-10-17T17:38:09.815Z,3.58
2022-10-17T17:40:37.943Z,3.35
2022-10-17T17:43:05.858Z,3.40
2022-10-17T17:45:35.867Z,3.08
2022-10-17T17:48:03.761Z,3.10
2022-10-17T17:50:31.814Z,3.08
2022-10-17T17:53:00.037Z,3.05
2022-10-17T17:55:27.945Z,3.13
2022-10-17T17:57:55.903Z,3.42
2022-10-17T18:00:23.979Z,3.08
2022-10-17T18:02:52.394Z,3.58
2022-10-17T18:05:21.238Z,3.28
2022-10-17T18:07:50.412Z,3.47
2022-10-17T18:10:18.579Z,3.60
2022-10-17T18:12:46.684Z,3.58
2022-10-17T18:15:15.138Z,3.20
2022-10-17T18:17:43.489Z,3.15
2022-10-17T18:20:11.739Z,3.30
2022-10-17T18:22:42.205Z,3.65
2022-10-17T18:25:10.380Z,3.67
2022-10-17T18:27:38.363Z,3.53
2022-10-17T18:30:07.058Z,3.97
2022-10-17T18:32:35.196Z,3.47
2022-10-17T18:35:03.227Z,3.45
2022-10-17T18:37:31.511Z,3.50
2022-10-17T18:39:59.535Z,3.53
2022-10-17T18:42:27.760Z,3.55
2022-10-17T18:44:56.124Z,3.78
2022-10-17T18:47:24.034Z,3.80
2022-10-17T18:49:52.033Z,3.53
2022-10-17T18:52:20.118Z,3.75
2022-10-17T18:54:47.979Z,3.80
2022-10-17T18:57:16.018Z,3.47
2022-10-17T18:59:46.546Z,3.67
2022-10-17T19:02:14.506Z,3.95
2022-10-17T19:04:42.453Z,4.47
2022-10-17T19:07:12.978Z,4.18
2022-10-17T19:09:40.880Z,3.95
2022-10-17T19:12:10.985Z,4.50
2022-10-17T19:14:41.704Z,4.00
2022-10-17T19:17:09.662Z,4.15
2022-10-17T19:19:38.176Z,4.38
2022-10-17T19:22:07.805Z,4.43
2022-10-17T19:24:35.850Z,4.88
2022-10-17T19:27:04.597Z,4.68
2022-10-17T19:29:34.489Z,6.05
2022-10-17T19:34:31.212Z,4.90
2022-10-17T19:37:01.066Z,5.55
2022-10-17T19:41:56.670Z,5.40
2022-10-17T19:44:24.808Z,5.57
2022-10-17T19:46:52.950Z,5.50
2022-10-17T19:49:21.240Z,6.53
2022-10-17T19:51:52.481Z,6.13
2022-10-17T19:54:20.950Z,7.10
2022-10-17T19:56:48.982Z,7.15
2022-10-17T19:59:17.919Z,7.53
2022-10-17T20:01:48.768Z,6.95
2022-10-17T20:04:16.728Z,7.13
2022-10-17T20:06:44.840Z,8.07
2022-10-17T20:09:16.839Z,7.55
2022-10-17T20:11:46.305Z,7.15
2022-10-17T20:14:14.193Z,7.20
2022-10-17T20:16:43.695Z,7.55
2022-10-17T20:19:13.434Z,7.82
2022-10-17T20:24:13.545Z,6.70
2022-10-17T20:26:41.829Z,7.57
2022-10-17T20:29:18.189Z,8.55
2022-10-17T20:31:47.828Z,7.05
2022-10-17T20:34:17.808Z,7.90
2022-10-17T20:36:46.399Z,7.75
2022-10-17T20:39:16.443Z,7.88
2022-10-17T20:41:45.895Z,6.88
2022-10-17T20:44:15.497Z,8.43
2022-10-17T20:46:52.954Z,7.57
2022-10-17T20:49:30.666Z,7.40
2022-10-17T20:52:00.240Z,7.22
2022-10-17T20:54:29.362Z,7.10
2022-10-17T20:57:02.460Z,8.15
2022-10-17T20:59:34.984Z,8.05
2022-10-17T21:02:04.470Z,7.63
2022-10-17T21:04:45.913Z,8.18
2022-10-17T21:07:15.577Z,8.23
2022-10-17T21:09:45.465Z,8.20
2022-10-17T21:12:18.200Z,7.45
2022-10-17T21:14:55.314Z,7.75
2022-10-17T21:17:23.459Z,7.88
2022-10-17T21:19:51.355Z,7.72
2022-10-17T21:22:19.680Z,8.25
2022-10-17T21:24:47.639Z,7.47
2022-10-17T21:27:18.032Z,8.02
2022-10-17T21:29:49.549Z,8.27
2022-10-17T21:32:31.874Z,8.27
2022-10-17T21:35:05.952Z,8.05
2022-10-17T21:37:33.873Z,8.10
2022-10-17T21:40:01.800Z,8.10
2022-10-17T21:42:31.132Z,8.18
2022-10-17T21:44:59.631Z,8.65
2022-10-17T21:47:27.815Z,8.30
2022-10-17T21:49:55.888Z,8.63
2022-10-17T21:52:23.851Z,8.10
2022-10-17T21:54:51.821Z,8.10
2022-10-17T21:57:21.686Z,8.27
2022-10-17T21:59:49.558Z,8.00
2022-10-17T22:02:18.202Z,8.05
2022-10-17T22:04:46.230Z,7.80
2022-10-17T22:07:14.208Z,8.07
2022-10-17T22:09:42.106Z,8.25
2022-10-17T22:12:10.656Z,8.80
2022-10-17T22:15:21.389Z,8.40
2022-10-17T22:17:51.482Z,8.02
2022-10-17T22:20:19.365Z,8.77
2022-10-17T22:22:47.256Z,8.60
2022-10-17T22:25:17.282Z,8.65
2022-10-17T22:27:45.226Z,8.32
2022-10-17T22:30:13.180Z,8.70
2022-10-17T22:32:41.251Z,9.13
2022-10-17T22:35:09.959Z,8.70
2022-10-17T22:37:37.901Z,8.95
2022-10-17T22:40:07.805Z,7.78
2022-10-17T22:42:35.690Z,9.25
2022-10-17T22:45:03.817Z,8.85
2022-10-17T22:47:33.909Z,9.32
2022-10-17T22:52:30.915Z,8.57
2022-10-17T22:54:59.421Z,8.48
2022-10-17T22:57:27.471Z,8.68
2022-10-17T22:59:55.417Z,8.15
2022-10-17T23:02:25.445Z,8.82
2022-10-17T23:04:53.403Z,9.15
2022-10-17T23:07:21.337Z,8.93
2022-10-17T23:09:50.729Z,8.25
2022-10-17T23:12:18.862Z,8.63
2022-10-17T23:14:46.936Z,8.55
2022-10-17T23:17:15.717Z,9.02
2022-10-17T23:19:43.702Z,8.68
2022-10-17T23:22:11.994Z,8.05
2022-10-17T23:24:40.109Z,8.23
2022-10-17T23:27:08.055Z,8.02
2022-10-17T23:29:36.614Z,8.80
2022-10-17T23:32:04.717Z,8.00
2022-10-17T23:34:32.647Z,8.40
2022-10-17T23:37:00.628Z,8.30
2022-10-17T23:39:32.033Z,8.20
2022-10-17T23:42:00.010Z,8.05
2022-10-17T23:44:27.910Z,8.00
2022-10-17T23:46:56.013Z,7.78
2022-10-17T23:49:23.988Z,7.43
2022-10-17T23:51:51.918Z,7.75
2022-10-17T23:54:19.937Z,7.43
2022-10-17T23:56:48.881Z,7.43
2022-10-17T23:59:17.852Z,7.22
